createdAt,value
2017-02-10T00:00:41.032Z,0
2017-02-10T00:01:49.982Z,0
2017-02-10T00:02:58.920Z,0
2017-02-10T00:04:07.876Z,0
2017-02-10T00:05:16.909Z,0
2017-02-10T00:06:25.861Z,0
2017-02-10T00:07:34.810Z,0
2017-02-10T00:08:43.757Z,0
2017-02-10T00:09:52.792Z,0
2017-02-10T00:11:01.738Z,0
2017-02-10T00:12:10.685Z,0
2017-02-10T00:13:19.717Z,0
2017-02-10T00:14:28.749Z,0
2017-02-10T00:15:37.698Z,0
2017-02-10T00:16:47.046Z,0
2017-02-10T00:17:56.031Z,0
2017-02-10T00:19:04.975Z,0
2017-02-10T00:20:14.004Z,0
2017-02-10T00:21:22.981Z,0
2017-02-10T00:22:31.924Z,0
2017-02-10T00:23:40.869Z,0
2017-02-10T00:24:50.221Z,0
2017-02-10T00:25:59.169Z,0
2017-02-10T00:27:08.119Z,0
2017-02-10T00:28:17.478Z,0
2017-02-10T00:29:26.423Z,0
2017-02-10T00:30:35.374Z,0
2017-02-10T00:31:44.323Z,0
2017-02-10T00:32:53.266Z,0
2017-02-10T00:34:02.213Z,0
2017-02-10T00:35:11.157Z,0
2017-02-10T00:36:20.195Z,0
2017-02-10T00:37:29.141Z,0
2017-02-10T00:38:38.089Z,0
2017-02-10T00:39:47.031Z,0
2017-02-10T00:40:55.982Z,0
2017-02-10T00:42:05.342Z,0
2017-02-10T00:43:14.697Z,0
2017-02-10T00:44:23.641Z,0
2017-02-10T00:45:32.582Z,0
2017-02-10T00:46:41.935Z,0
2017-02-10T00:47:50.875Z,0
2017-02-10T00:48:59.815Z,0
2017-02-10T00:50:08.845Z,0
2017-02-10T00:51:17.874Z,0
2017-02-10T00:52:26.816Z,0
2017-02-10T00:53:35.763Z,0
2017-02-10T00:54:44.794Z,0
2017-02-10T00:55:54.149Z,0
2017-02-10T00:57:03.093Z,0
2017-02-10T00:58:12.443Z,0
2017-02-10T00:59:21.388Z,0
2017-02-10T01:00:30.332Z,0
2017-02-10T01:01:39.276Z,0
2017-02-10T01:02:48.222Z,0
2017-02-10T01:03:57.166Z,0
2017-02-10T01:05:06.123Z,0
2017-02-10T01:06:15.069Z,0
2017-02-10T01:07:24.018Z,0
2017-02-10T01:08:32.965Z,0
2017-02-10T01:09:41.917Z,0
2017-02-10T01:10:50.862Z,0
2017-02-10T01:11:59.810Z,0
2017-02-10T01:13:08.754Z,0
2017-02-10T01:14:17.699Z,0
2017-02-10T01:15:26.645Z,0
2017-02-10T01:16:35.597Z,0
2017-02-10T01:17:44.576Z,0
2017-02-10T01:18:53.523Z,0
2017-02-10T01:20:02.467Z,0
2017-02-10T01:21:11.822Z,0
2017-02-10T01:22:20.761Z,0
2017-02-10T01:23:29.704Z,0
2017-02-10T01:24:38.691Z,0
2017-02-10T01:25:47.637Z,0
2017-02-10T01:26:56.671Z,0
2017-02-10T01:28:05.620Z,0
2017-02-10T01:29:14.655Z,0
2017-02-10T01:30:23.594Z,0
2017-02-10T01:31:32.548Z,0
2017-02-10T01:32:41.897Z,0
2017-02-10T01:33:51.258Z,0
2017-02-10T01:35:00.206Z,0
2017-02-10T01:36:09.149Z,0
2017-02-10T01:37:18.182Z,0
2017-02-10T01:38:27.628Z,0
2017-02-10T01:39:36.978Z,0
2017-02-10T01:40:45.920Z,0
2017-02-10T01:41:54.954Z,0
2017-02-10T01:43:03.901Z,0
2017-02-10T01:44:12.851Z,0
2017-02-10T01:45:21.880Z,0
2017-02-10T01:46:30.830Z,0
2017-02-10T01:47:39.774Z,0
2017-02-10T01:48:48.730Z,0
2017-02-10T01:49:57.682Z,0
2017-02-10T01:51:06.627Z,0
2017-02-10T01:52:15.576Z,0
2017-02-10T01:53:24.525Z,0
2017-02-10T01:54:33.468Z,0
2017-02-10T01:55:42.419Z,0
2017-02-10T01:56:51.370Z,0
2017-02-10T01:58:00.312Z,0
2017-02-10T01:59:09.668Z,0
2017-02-10T02:00:18.608Z,0
2017-02-10T02:01:27.554Z,0
2017-02-10T02:02:36.502Z,0
2017-02-10T02:03:45.444Z,0
2017-02-10T02:04:54.393Z,0
2017-02-10T02:06:03.745Z,0
2017-02-10T02:07:12.693Z,0
2017-02-10T02:08:21.640Z,0
2017-02-10T02:09:30.679Z,0
2017-02-10T02:10:39.626Z,0
2017-02-10T02:11:48.569Z,0
2017-02-10T02:12:57.511Z,0
2017-02-10T02:14:06.453Z,0
2017-02-10T02:15:15.489Z,0
2017-02-10T02:16:24.435Z,0
2017-02-10T02:17:33.380Z,0
2017-02-10T02:18:42.327Z,0
2017-02-10T02:19:51.358Z,0
2017-02-10T02:21:00.302Z,0
2017-02-10T02:22:09.653Z,0
2017-02-10T02:23:18.602Z,0
2017-02-10T02:24:27.638Z,0
2017-02-10T02:25:36.586Z,0
2017-02-10T02:26:45.536Z,0
2017-02-10T02:27:54.566Z,0
2017-02-10T02:29:03.521Z,0
2017-02-10T02:30:12.470Z,0
2017-02-10T02:31:21.418Z,0
2017-02-10T02:32:30.372Z,0
2017-02-10T02:33:39.410Z,0
2017-02-10T02:34:48.772Z,0
2017-02-10T02:35:58.120Z,0
2017-02-10T02:37:07.071Z,0
2017-02-10T02:38:16.420Z,0
2017-02-10T02:39:25.368Z,0
2017-02-10T02:40:34.312Z,0
2017-02-10T02:41:43.259Z,0
2017-02-10T02:42:52.203Z,0
2017-02-10T02:44:01.151Z,0
2017-02-10T02:45:10.097Z,0
2017-02-10T02:46:19.040Z,0
2017-02-10T02:47:28.165Z,0
2017-02-10T02:48:37.107Z,0
2017-02-10T02:49:46.051Z,0
2017-02-10T02:50:54.996Z,0
2017-02-10T02:52:04.024Z,0
2017-02-10T02:53:12.964Z,0
2017-02-10T02:54:21.943Z,0
2017-02-10T02:55:30.896Z,0
2017-02-10T02:56:39.929Z,0
2017-02-10T02:57:48.873Z,0
2017-02-10T02:58:57.823Z,0
2017-02-10T03:00:06.767Z,0
2017-02-10T03:01:15.711Z,0
2017-02-10T03:02:24.654Z,0
2017-02-10T03:03:33.600Z,0
2017-02-10T03:04:42.549Z,0
2017-02-10T03:05:51.494Z,0
2017-02-10T03:07:00.440Z,0
2017-02-10T03:08:09.794Z,0
2017-02-10T03:09:18.739Z,0
2017-02-10T03:10:27.732Z,0
2017-02-10T03:11:36.765Z,0
2017-02-10T03:12:45.795Z,0
2017-02-10T03:13:54.742Z,0
2017-02-10T03:15:03.706Z,0
2017-02-10T03:16:12.653Z,0
2017-02-10T03:17:21.686Z,0
2017-02-10T03:18:30.631Z,0
2017-02-10T03:19:39.668Z,0
2017-02-10T03:20:48.613Z,0
2017-02-10T03:21:57.553Z,0
2017-02-10T03:23:06.496Z,0
2017-02-10T03:24:15.853Z,0
2017-02-10T03:25:24.884Z,0
2017-02-10T03:26:33.830Z,0
2017-02-10T03:27:42.861Z,0
2017-02-10T03:28:51.805Z,0
2017-02-10T03:30:00.748Z,0
2017-02-10T03:31:09.692Z,0
2017-02-10T03:32:18.638Z,0
2017-02-10T03:33:27.584Z,0
2017-02-10T03:34:37.016Z,0
2017-02-10T03:35:45.957Z,0
2017-02-10T03:36:55.305Z,0
2017-02-10T03:38:04.256Z,0
2017-02-10T03:39:13.202Z,0
2017-02-10T03:40:22.146Z,0
2017-02-10T03:41:31.089Z,0
2017-02-10T03:42:40.034Z,0
2017-02-10T03:43:48.977Z,0
2017-02-10T03:44:57.922Z,0
2017-02-10T03:46:06.861Z,0
2017-02-10T03:47:15.807Z,0
2017-02-10T03:48:24.844Z,0
2017-02-10T03:49:34.195Z,0
2017-02-10T03:50:43.145Z,0
2017-02-10T03:51:52.089Z,0
2017-02-10T03:53:01.118Z,0
2017-02-10T03:54:10.160Z,0
2017-02-10T03:55:19.228Z,0
2017-02-10T03:56:28.174Z,0
2017-02-10T03:57:37.121Z,0
2017-02-10T03:58:46.241Z,0
2017-02-10T03:59:55.180Z,0
2017-02-10T04:01:04.122Z,0
2017-02-10T04:02:13.071Z,0
2017-02-10T04:03:22.021Z,0
2017-02-10T04:04:30.961Z,0
2017-02-10T04:05:39.903Z,0
2017-02-10T04:06:48.849Z,0
2017-02-10T04:07:57.829Z,0
2017-02-10T04:09:06.773Z,0
2017-02-10T04:10:15.807Z,0
2017-02-10T04:11:24.837Z,0
2017-02-10T04:12:33.784Z,0
2017-02-10T04:13:42.768Z,0
2017-02-10T04:14:51.746Z,0
2017-02-10T04:16:00.698Z,0
2017-02-10T04:17:09.642Z,0
2017-02-10T04:18:18.587Z,0
2017-02-10T04:19:27.544Z,0
2017-02-10T04:20:36.487Z,0
2017-02-10T04:21:45.433Z,0
2017-02-10T04:22:54.378Z,0
2017-02-10T04:24:03.324Z,0
2017-02-10T04:25:12.271Z,0
2017-02-10T04:26:21.217Z,0
2017-02-10T04:27:30.167Z,0
2017-02-10T04:28:39.520Z,0
2017-02-10T04:29:48.548Z,0
2017-02-10T04:30:57.496Z,0
2017-02-10T04:32:06.849Z,0
2017-02-10T04:33:15.794Z,0
2017-02-10T04:34:24.771Z,0
2017-02-10T04:35:33.724Z,0
2017-02-10T04:36:42.666Z,0
2017-02-10T04:37:51.610Z,0
2017-02-10T04:39:00.561Z,0
2017-02-10T04:40:09.908Z,0
2017-02-10T04:41:18.881Z,0
2017-02-10T04:42:27.825Z,0
2017-02-10T04:43:36.769Z,0
2017-02-10T04:44:45.805Z,0
2017-02-10T04:45:54.750Z,0
2017-02-10T04:47:03.694Z,0
2017-02-10T04:48:12.640Z,0
2017-02-10T04:49:21.588Z,0
2017-02-10T04:50:30.626Z,0
2017-02-10T04:51:39.563Z,0
2017-02-10T04:52:48.509Z,0
2017-02-10T04:53:57.456Z,0
2017-02-10T04:55:06.410Z,0
2017-02-10T04:56:15.756Z,0
2017-02-10T04:57:24.789Z,0
2017-02-10T04:58:33.736Z,0
2017-02-10T04:59:42.679Z,0
2017-02-10T05:00:51.621Z,0
2017-02-10T05:02:00.562Z,0
2017-02-10T05:03:09.539Z,0
2017-02-10T05:04:18.479Z,0
2017-02-10T05:05:27.510Z,0
2017-02-10T05:06:36.457Z,0
2017-02-10T05:07:45.890Z,0
2017-02-10T05:08:55.586Z,0
2017-02-10T05:10:04.942Z,0
2017-02-10T05:11:13.886Z,0
2017-02-10T05:12:22.834Z,0
2017-02-10T05:13:31.779Z,0
2017-02-10T05:14:40.723Z,0
2017-02-10T05:15:49.668Z,0
2017-02-10T05:16:58.613Z,0
2017-02-10T05:18:07.649Z,0
2017-02-10T05:19:17.407Z,0
2017-02-10T05:20:26.356Z,0
2017-02-10T05:21:35.307Z,0
2017-02-10T05:22:44.251Z,0
2017-02-10T05:23:53.197Z,0
2017-02-10T05:25:02.140Z,0
2017-02-10T05:26:11.116Z,0
2017-02-10T05:27:20.066Z,0
2017-02-10T05:28:29.015Z,0
2017-02-10T05:29:37.962Z,0
2017-02-10T05:30:46.906Z,0
2017-02-10T05:31:56.262Z,0
2017-02-10T05:33:05.206Z,0
2017-02-10T05:34:14.151Z,0
2017-02-10T05:35:23.101Z,0
2017-02-10T05:36:32.137Z,0
2017-02-10T05:37:41.080Z,0
2017-02-10T05:38:50.024Z,0
2017-02-10T05:39:58.971Z,0
2017-02-10T05:41:07.922Z,0
2017-02-10T05:42:16.891Z,0
2017-02-10T05:43:25.848Z,0
2017-02-10T05:44:34.882Z,0
2017-02-10T05:45:43.830Z,0
2017-02-10T05:46:52.773Z,0
2017-02-10T05:48:01.720Z,0
2017-02-10T05:49:10.664Z,0
2017-02-10T05:50:19.611Z,0
2017-02-10T05:51:28.959Z,0
2017-02-10T05:52:37.907Z,0
2017-02-10T05:53:46.938Z,0
2017-02-10T05:54:55.881Z,0
2017-02-10T05:56:04.826Z,0
2017-02-10T05:57:13.769Z,0
2017-02-10T05:58:22.715Z,0
2017-02-10T05:59:31.668Z,0
2017-02-10T06:00:40.609Z,0
2017-02-10T06:01:49.552Z,0
2017-02-10T06:02:58.495Z,0
2017-02-10T06:04:07.438Z,0
2017-02-10T06:05:16.381Z,0
2017-02-10T06:06:25.326Z,4
2017-02-10T06:07:34.276Z,4
2017-02-10T06:08:43.226Z,0
2017-02-10T06:09:52.175Z,0
2017-02-10T06:11:01.213Z,4
2017-02-10T06:12:10.153Z,4
2017-02-10T06:13:19.095Z,4
2017-02-10T06:14:28.039Z,8
2017-02-10T06:15:36.986Z,8
2017-02-10T06:16:45.930Z,4
2017-02-10T06:17:54.873Z,12
2017-02-10T06:19:03.814Z,8
2017-02-10T06:20:12.761Z,12
2017-02-10T06:21:21.707Z,12
2017-02-10T06:22:30.653Z,16
2017-02-10T06:23:39.590Z,20
2017-02-10T06:24:48.539Z,20
2017-02-10T06:25:57.590Z,24
2017-02-10T06:27:06.532Z,28
2017-02-10T06:28:15.477Z,32
2017-02-10T06:29:24.420Z,36
2017-02-10T06:30:33.367Z,40
2017-02-10T06:31:42.306Z,48
2017-02-10T06:32:51.252Z,56
2017-02-10T06:34:00.198Z,64
2017-02-10T06:35:09.147Z,72
2017-02-10T06:36:18.092Z,72
2017-02-10T06:37:27.442Z,76
2017-02-10T06:38:36.393Z,80
2017-02-10T06:39:45.337Z,88
2017-02-10T06:40:54.279Z,84
2017-02-10T06:42:03.234Z,84
2017-02-10T06:43:12.187Z,92
2017-02-10T06:44:21.139Z,92
2017-02-10T06:45:30.083Z,100
2017-02-10T06:46:39.026Z,100
2017-02-10T06:47:47.973Z,112
2017-02-10T06:48:56.919Z,108
2017-02-10T06:50:06.273Z,124
2017-02-10T06:51:15.217Z,116
2017-02-10T06:52:24.161Z,116
2017-02-10T06:53:33.103Z,116
2017-02-10T06:54:42.051Z,116
2017-02-10T06:55:51.497Z,116
2017-02-10T06:57:00.847Z,128
2017-02-10T06:58:09.786Z,124
2017-02-10T06:59:18.730Z,160
2017-02-10T07:00:27.676Z,144
2017-02-10T07:01:36.625Z,168
2017-02-10T07:02:45.569Z,148
2017-02-10T07:03:54.512Z,176
2017-02-10T07:05:03.457Z,200
2017-02-10T07:06:12.400Z,188
2017-02-10T07:07:21.346Z,200
2017-02-10T07:08:30.290Z,204
2017-02-10T07:09:39.238Z,220
2017-02-10T07:10:48.180Z,228
2017-02-10T07:11:57.125Z,252
2017-02-10T07:13:06.476Z,280
2017-02-10T07:14:15.421Z,296
2017-02-10T07:15:24.535Z,324
2017-02-10T07:16:33.478Z,324
2017-02-10T07:17:42.426Z,352
2017-02-10T07:18:52.182Z,356
2017-02-10T07:20:01.212Z,380
2017-02-10T07:21:10.156Z,392
2017-02-10T07:22:19.498Z,400
2017-02-10T07:23:28.440Z,396
2017-02-10T07:24:37.468Z,412
2017-02-10T07:25:46.413Z,412
2017-02-10T07:26:55.771Z,416
2017-02-10T07:28:04.712Z,452
2017-02-10T07:29:13.653Z,444
2017-02-10T07:30:22.598Z,480
2017-02-10T07:31:31.547Z,512
2017-02-10T07:32:40.910Z,532
2017-02-10T07:33:49.861Z,536
2017-02-10T07:34:58.807Z,564
2017-02-10T07:36:07.771Z,608
2017-02-10T07:37:16.718Z,580
2017-02-10T07:38:25.661Z,616
2017-02-10T07:39:34.604Z,636
2017-02-10T07:40:43.546Z,680
2017-02-10T07:41:52.496Z,632
2017-02-10T07:43:01.443Z,680
2017-02-10T07:44:10.384Z,696
2017-02-10T07:45:19.329Z,692
2017-02-10T07:46:28.275Z,672
2017-02-10T07:47:37.219Z,680
2017-02-10T07:48:46.248Z,696
2017-02-10T07:49:55.281Z,776
2017-02-10T07:51:04.231Z,732
2017-02-10T07:52:13.985Z,752
2017-02-10T07:53:22.934Z,788
2017-02-10T07:54:31.880Z,832
2017-02-10T07:55:40.826Z,860
2017-02-10T07:56:49.772Z,896
2017-02-10T07:57:59.129Z,940
2017-02-10T07:59:08.066Z,992
2017-02-10T08:00:17.015Z,1000
2017-02-10T08:01:26.045Z,1028
2017-02-10T08:02:34.990Z,1068
2017-02-10T08:03:43.937Z,1028
2017-02-10T08:04:52.883Z,1004
2017-02-10T08:06:01.832Z,1092
2017-02-10T08:07:10.774Z,1124
2017-02-10T08:08:19.721Z,1240
2017-02-10T08:09:29.075Z,1144
2017-02-10T08:10:38.019Z,1124
2017-02-10T08:11:46.970Z,1220
2017-02-10T08:12:56.015Z,1232
2017-02-10T08:14:05.055Z,1244
2017-02-10T08:15:14.169Z,1292
2017-02-10T08:16:23.285Z,1248
2017-02-10T08:17:32.230Z,1152
2017-02-10T08:18:41.263Z,1260
2017-02-10T08:19:50.224Z,1360
2017-02-10T08:20:59.617Z,1240
2017-02-10T08:22:08.970Z,1228
2017-02-10T08:23:17.916Z,1296
2017-02-10T08:24:27.271Z,1280
2017-02-10T08:25:36.417Z,1228
2017-02-10T08:26:45.766Z,1228
2017-02-10T08:27:54.714Z,1304
2017-02-10T08:29:03.746Z,1312
2017-02-10T08:30:12.698Z,1492
2017-02-10T08:31:21.651Z,1556
2017-02-10T08:32:30.599Z,1588
2017-02-10T08:33:39.544Z,1536
2017-02-10T08:34:48.498Z,1460
2017-02-10T08:35:57.438Z,1480
2017-02-10T08:37:06.880Z,1528
2017-02-10T08:38:15.827Z,1516
2017-02-10T08:39:24.771Z,1460
2017-02-10T08:40:33.716Z,1372
2017-02-10T08:41:42.668Z,1292
2017-02-10T08:42:51.615Z,1356
2017-02-10T08:44:00.981Z,1396
2017-02-10T08:45:09.931Z,1448
2017-02-10T08:46:18.880Z,1528
2017-02-10T08:47:27.824Z,1536
2017-02-10T08:48:36.766Z,1716
2017-02-10T08:49:45.714Z,1876
2017-02-10T08:50:54.657Z,1956
2017-02-10T08:52:03.604Z,2024
2017-02-10T08:53:12.548Z,1972
2017-02-10T08:54:21.491Z,2112
2017-02-10T08:55:30.463Z,2228
2017-02-10T08:56:39.815Z,2016
2017-02-10T08:57:48.757Z,2324
2017-02-10T08:58:58.519Z,2540
2017-02-10T09:00:07.463Z,2304
2017-02-10T09:01:16.408Z,2236
2017-02-10T09:02:25.350Z,2228
2017-02-10T09:03:34.295Z,2084
2017-02-10T09:04:43.247Z,2204
2017-02-10T09:05:52.188Z,2456
2017-02-10T09:07:01.127Z,2396
2017-02-10T09:08:10.075Z,2500
2017-02-10T09:09:19.015Z,2260
2017-02-10T09:10:27.965Z,2484
2017-02-10T09:11:36.998Z,2456
2017-02-10T09:12:45.941Z,2512
2017-02-10T09:13:54.894Z,2428
2017-02-10T09:15:03.842Z,2400
2017-02-10T09:16:12.784Z,2620
2017-02-10T09:17:21.730Z,2644
2017-02-10T09:18:30.675Z,2464
2017-02-10T09:19:39.620Z,2460
2017-02-10T09:20:48.568Z,2560
2017-02-10T09:21:58.336Z,2712
2017-02-10T09:23:07.284Z,2600
2017-02-10T09:24:16.639Z,2504
2017-02-10T09:25:25.587Z,2736
2017-02-10T09:26:34.533Z,2916
2017-02-10T09:27:43.481Z,2844
2017-02-10T09:28:52.427Z,2760
2017-02-10T09:30:01.457Z,2876
2017-02-10T09:31:10.403Z,3016
2017-02-10T09:32:19.353Z,3072
2017-02-10T09:33:28.298Z,3048
2017-02-10T09:34:37.245Z,2932
2017-02-10T09:35:46.189Z,2680
2017-02-10T09:36:55.132Z,2560
2017-02-10T09:38:04.078Z,2552
2017-02-10T09:39:13.023Z,2544
2017-02-10T09:40:21.968Z,2556
2017-02-10T09:41:30.915Z,2552
2017-02-10T09:42:39.952Z,2420
2017-02-10T09:43:48.893Z,2292
2017-02-10T09:44:58.284Z,2320
2017-02-10T09:46:07.234Z,2612
2017-02-10T09:47:16.179Z,2692
2017-02-10T09:48:25.136Z,2780
2017-02-10T09:49:34.486Z,2648
2017-02-10T09:50:43.430Z,2692
2017-02-10T09:51:52.375Z,2992
2017-02-10T09:53:01.333Z,3344
2017-02-10T09:54:10.277Z,4080
2017-02-10T09:55:19.223Z,4324
2017-02-10T09:56:28.171Z,4068
2017-02-10T09:57:37.206Z,3704
2017-02-10T09:58:46.150Z,3268
2017-02-10T09:59:55.181Z,3088
2017-02-10T10:01:04.215Z,2544
2017-02-10T10:02:13.163Z,2416
2017-02-10T10:03:22.519Z,2260
2017-02-10T10:04:31.464Z,2380
2017-02-10T10:05:40.411Z,2568
2017-02-10T10:06:49.356Z,2412
2017-02-10T10:07:58.301Z,2404
2017-02-10T10:09:07.252Z,2208
2017-02-10T10:10:16.194Z,2256
2017-02-10T10:11:25.143Z,2244
2017-02-10T10:12:34.095Z,2188
2017-02-10T10:13:43.447Z,2156
2017-02-10T10:14:52.394Z,2596
2017-02-10T10:16:01.341Z,2316
2017-02-10T10:17:10.698Z,2412
2017-02-10T10:18:19.727Z,2500
2017-02-10T10:19:28.765Z,2112
2017-02-10T10:20:37.714Z,2288
2017-02-10T10:21:46.662Z,2088
2017-02-10T10:22:55.696Z,2716
2017-02-10T10:24:04.725Z,2684
2017-02-10T10:25:14.169Z,2532
2017-02-10T10:26:23.120Z,2444
2017-02-10T10:27:32.067Z,2336
2017-02-10T10:28:41.192Z,2160
2017-02-10T10:29:50.225Z,2488
2017-02-10T10:30:59.169Z,2152
2017-02-10T10:32:08.127Z,1976
2017-02-10T10:33:17.073Z,1988
2017-02-10T10:34:26.020Z,2180
2017-02-10T10:35:34.967Z,2132
2017-02-10T10:36:43.915Z,2080
2017-02-10T10:37:52.862Z,2144
2017-02-10T10:39:01.808Z,2076
2017-02-10T10:40:10.756Z,2004
2017-02-10T10:41:19.707Z,1940
2017-02-10T10:42:28.832Z,1964
2017-02-10T10:43:37.772Z,1784
2017-02-10T10:44:46.715Z,1728
2017-02-10T10:45:55.666Z,1984
2017-02-10T10:47:04.620Z,2072
2017-02-10T10:48:13.563Z,1976
2017-02-10T10:49:22.509Z,2104
2017-02-10T10:50:31.455Z,1980
2017-02-10T10:51:40.407Z,1908
2017-02-10T10:52:49.347Z,1844
2017-02-10T10:53:58.300Z,1896
2017-02-10T10:55:07.249Z,1864
2017-02-10T10:56:16.199Z,1872
2017-02-10T10:57:25.146Z,1856
2017-02-10T10:58:34.093Z,1792
2017-02-10T10:59:43.046Z,1800
2017-02-10T11:00:51.990Z,1836
2017-02-10T11:02:00.943Z,1800
2017-02-10T11:03:10.304Z,1748
2017-02-10T11:04:19.251Z,1760
2017-02-10T11:05:28.199Z,1740
2017-02-10T11:06:37.556Z,1716
2017-02-10T11:07:46.505Z,1716
2017-02-10T11:08:55.457Z,1712
2017-02-10T11:10:04.809Z,1712
2017-02-10T11:11:13.752Z,1712
2017-02-10T11:12:22.784Z,1716
2017-02-10T11:13:31.730Z,1712
2017-02-10T11:14:40.677Z,1696
2017-02-10T11:15:49.623Z,1676
2017-02-10T11:16:58.573Z,1668
2017-02-10T11:18:07.522Z,1672
2017-02-10T11:19:16.470Z,1672
2017-02-10T11:20:25.501Z,1652
2017-02-10T11:21:34.448Z,1668
2017-02-10T11:22:43.393Z,1652
2017-02-10T11:23:52.745Z,1648
2017-02-10T11:25:01.697Z,1660
2017-02-10T11:26:10.638Z,1676
2017-02-10T11:27:19.585Z,1660
2017-02-10T11:28:28.532Z,1648
2017-02-10T11:29:37.477Z,1644
2017-02-10T11:30:46.830Z,1652
2017-02-10T11:31:56.187Z,1664
2017-02-10T11:33:05.136Z,1692
2017-02-10T11:34:14.090Z,1720
2017-02-10T11:35:23.036Z,1716
2017-02-10T11:36:31.986Z,1700
2017-02-10T11:37:40.945Z,1672
2017-02-10T11:38:49.893Z,1636
2017-02-10T11:39:58.840Z,1648
2017-02-10T11:41:07.875Z,1648
2017-02-10T11:42:17.232Z,1640
2017-02-10T11:43:26.588Z,1640
2017-02-10T11:44:35.527Z,1616
2017-02-10T11:45:44.476Z,1608
2017-02-10T11:46:53.420Z,1608
2017-02-10T11:48:02.366Z,1584
2017-02-10T11:49:11.318Z,1588
2017-02-10T11:50:20.762Z,1580
2017-02-10T11:51:29.713Z,1572
2017-02-10T11:52:38.749Z,1588
2017-02-10T11:53:47.696Z,1592
2017-02-10T11:54:56.731Z,1604
2017-02-10T11:56:05.677Z,1580
2017-02-10T11:57:14.627Z,1580
2017-02-10T11:58:23.576Z,1584
2017-02-10T11:59:32.524Z,1608
2017-02-10T12:00:41.472Z,1608
2017-02-10T12:01:50.422Z,1592
2017-02-10T12:02:59.368Z,1568
2017-02-10T12:04:08.812Z,1572
2017-02-10T12:05:17.763Z,1564
2017-02-10T12:06:26.712Z,1584
2017-02-10T12:07:35.669Z,1556
2017-02-10T12:08:44.617Z,1544
2017-02-10T12:09:53.564Z,1552
2017-02-10T12:11:02.516Z,1544
2017-02-10T12:12:11.462Z,1540
2017-02-10T12:13:20.408Z,1524
2017-02-10T12:14:29.443Z,1520
2017-02-10T12:15:38.392Z,1500
2017-02-10T12:16:47.335Z,1496
2017-02-10T12:17:56.290Z,1496
2017-02-10T12:19:05.238Z,1492
2017-02-10T12:20:14.191Z,1484
2017-02-10T12:21:23.224Z,1480
2017-02-10T12:22:32.174Z,1512
2017-02-10T12:23:41.122Z,1504
2017-02-10T12:24:50.069Z,1508
2017-02-10T12:25:59.016Z,1512
2017-02-10T12:27:07.969Z,1504
2017-02-10T12:28:16.918Z,1504
2017-02-10T12:29:25.861Z,1488
2017-02-10T12:30:34.808Z,1500
2017-02-10T12:31:44.159Z,1496
2017-02-10T12:32:53.109Z,1480
2017-02-10T12:34:02.459Z,1488
2017-02-10T12:35:11.408Z,1472
2017-02-10T12:36:20.356Z,1484
2017-02-10T12:37:29.310Z,1488
2017-02-10T12:38:38.260Z,1472
2017-02-10T12:39:47.615Z,1456
2017-02-10T12:40:56.563Z,1448
2017-02-10T12:42:05.514Z,1460
2017-02-10T12:43:14.460Z,1452
2017-02-10T12:44:23.406Z,1436
2017-02-10T12:45:32.364Z,1420
2017-02-10T12:46:41.311Z,1428
2017-02-10T12:47:50.259Z,1420
2017-02-10T12:48:59.704Z,1400
2017-02-10T12:50:08.647Z,1400
2017-02-10T12:51:17.598Z,1400
2017-02-10T12:52:26.541Z,1384
2017-02-10T12:53:35.490Z,1388
2017-02-10T12:54:44.437Z,1388
2017-02-10T12:55:53.394Z,1400
2017-02-10T12:57:02.751Z,1392
2017-02-10T12:58:11.704Z,1376
2017-02-10T12:59:20.656Z,1360
2017-02-10T13:00:29.602Z,1376
2017-02-10T13:01:38.550Z,1372
2017-02-10T13:02:47.499Z,1380
2017-02-10T13:03:56.451Z,1388
2017-02-10T13:05:05.401Z,1364
2017-02-10T13:06:14.347Z,1368
2017-02-10T13:07:23.296Z,1360
2017-02-10T13:08:32.245Z,1360
2017-02-10T13:09:41.197Z,1360
2017-02-10T13:10:50.147Z,1332
2017-02-10T13:11:59.176Z,1364
2017-02-10T13:13:08.121Z,1344
2017-02-10T13:14:17.063Z,1340
2017-02-10T13:15:26.007Z,1352
2017-02-10T13:16:35.041Z,1332
2017-02-10T13:17:43.996Z,1328
2017-02-10T13:18:52.945Z,1336
2017-02-10T13:20:02.295Z,1304
2017-02-10T13:21:11.246Z,1304
2017-02-10T13:22:20.197Z,1296
2017-02-10T13:23:29.149Z,1304
2017-02-10T13:24:38.095Z,1272
2017-02-10T13:25:47.045Z,1252
2017-02-10T13:26:55.995Z,1260
2017-02-10T13:28:04.946Z,1280
2017-02-10T13:29:13.898Z,1236
2017-02-10T13:30:22.848Z,1236
2017-02-10T13:31:31.799Z,1228
2017-02-10T13:32:40.849Z,1260
2017-02-10T13:33:49.799Z,1232
2017-02-10T13:34:58.749Z,1212
2017-02-10T13:36:07.699Z,1232
2017-02-10T13:37:16.651Z,1192
2017-02-10T13:38:25.602Z,1172
2017-02-10T13:39:34.645Z,1200
2017-02-10T13:40:43.593Z,1212
2017-02-10T13:41:52.540Z,1212
2017-02-10T13:43:01.494Z,1204
2017-02-10T13:44:10.445Z,1200
2017-02-10T13:45:19.397Z,1208
2017-02-10T13:46:28.343Z,1212
2017-02-10T13:47:37.293Z,1220
2017-02-10T13:48:46.243Z,1240
2017-02-10T13:49:55.192Z,1232
2017-02-10T13:51:04.142Z,1200
2017-02-10T13:52:13.093Z,1160
2017-02-10T13:53:22.129Z,1132
2017-02-10T13:54:31.085Z,1116
2017-02-10T13:55:40.032Z,1112
2017-02-10T13:56:49.068Z,1092
2017-02-10T13:57:58.107Z,1088
2017-02-10T13:59:07.056Z,1080
2017-02-10T14:00:16.004Z,1080
2017-02-10T14:01:24.956Z,1068
2017-02-10T14:02:33.901Z,1068
2017-02-10T14:03:42.852Z,1056
2017-02-10T14:04:51.808Z,1052
2017-02-10T14:06:00.760Z,1040
2017-02-10T14:07:09.711Z,1024
2017-02-10T14:08:18.662Z,1032
2017-02-10T14:09:28.020Z,1024
2017-02-10T14:10:36.974Z,1032
2017-02-10T14:11:45.928Z,1012
2017-02-10T14:12:54.874Z,1000
2017-02-10T14:14:03.827Z,996
2017-02-10T14:15:12.865Z,984
2017-02-10T14:16:22.255Z,976
2017-02-10T14:17:31.204Z,972
2017-02-10T14:18:40.149Z,964
2017-02-10T14:19:49.098Z,956
2017-02-10T14:20:58.047Z,952
2017-02-10T14:22:07.013Z,936
2017-02-10T14:23:15.961Z,924
2017-02-10T14:24:24.907Z,916
2017-02-10T14:25:33.861Z,900
2017-02-10T14:26:42.811Z,904
2017-02-10T14:27:51.758Z,896
2017-02-10T14:29:00.703Z,888
2017-02-10T14:30:09.655Z,880
2017-02-10T14:31:18.606Z,868
2017-02-10T14:32:27.965Z,856
2017-02-10T14:33:37.726Z,852
2017-02-10T14:34:46.707Z,848
2017-02-10T14:35:55.746Z,840
2017-02-10T14:37:04.701Z,832
2017-02-10T14:38:13.648Z,824
2017-02-10T14:39:22.593Z,812
2017-02-10T14:40:31.550Z,808
2017-02-10T14:41:40.673Z,808
2017-02-10T14:42:49.631Z,800
2017-02-10T14:43:58.592Z,792
2017-02-10T14:45:07.955Z,784
2017-02-10T14:46:16.904Z,772
2017-02-10T14:47:25.862Z,760
2017-02-10T14:48:34.821Z,748
2017-02-10T14:49:43.768Z,732
2017-02-10T14:50:52.716Z,724
2017-02-10T14:52:01.667Z,712
2017-02-10T14:53:11.023Z,708
2017-02-10T14:54:20.054Z,700
2017-02-10T14:55:29.005Z,688
2017-02-10T14:56:38.041Z,676
2017-02-10T14:57:47.403Z,668
2017-02-10T14:58:56.348Z,664
2017-02-10T15:00:05.297Z,660
2017-02-10T15:01:14.250Z,652
2017-02-10T15:02:23.251Z,648
2017-02-10T15:03:32.198Z,636
2017-02-10T15:04:41.147Z,628
2017-02-10T15:05:50.096Z,616
2017-02-10T15:06:59.450Z,604
2017-02-10T15:08:08.403Z,592
2017-02-10T15:09:17.352Z,580
2017-02-10T15:10:26.309Z,572
2017-02-10T15:11:35.258Z,560
2017-02-10T15:12:44.209Z,552
2017-02-10T15:13:53.154Z,548
2017-02-10T15:15:02.127Z,532
2017-02-10T15:16:11.078Z,520
2017-02-10T15:17:20.024Z,512
2017-02-10T15:18:28.968Z,496
2017-02-10T15:19:37.915Z,488
2017-02-10T15:20:46.866Z,480
2017-02-10T15:21:55.901Z,468
2017-02-10T15:23:04.855Z,452
2017-02-10T15:24:13.895Z,444
2017-02-10T15:25:22.932Z,440
2017-02-10T15:26:31.886Z,428
2017-02-10T15:27:40.931Z,412
2017-02-10T15:28:49.888Z,404
2017-02-10T15:29:59.243Z,392
2017-02-10T15:31:08.289Z,380
2017-02-10T15:32:17.237Z,368
2017-02-10T15:33:26.187Z,356
2017-02-10T15:34:35.136Z,348
2017-02-10T15:35:44.078Z,336
2017-02-10T15:36:53.026Z,324
2017-02-10T15:38:02.059Z,316
2017-02-10T15:39:11.417Z,304
2017-02-10T15:40:20.365Z,292
2017-02-10T15:41:29.319Z,284
2017-02-10T15:42:38.283Z,272
2017-02-10T15:43:47.228Z,260
2017-02-10T15:44:56.596Z,248
2017-02-10T15:46:06.128Z,240
2017-02-10T15:47:15.082Z,228
2017-02-10T15:48:24.031Z,220
2017-02-10T15:49:33.003Z,208
2017-02-10T15:50:43.798Z,196
2017-02-10T15:51:54.056Z,184
2017-02-10T15:53:04.088Z,176
2017-02-10T15:54:14.005Z,164
2017-02-10T15:55:23.773Z,152
2017-02-10T15:56:33.948Z,144
2017-02-10T15:57:45.553Z,132
2017-02-10T15:58:57.493Z,124
2017-02-10T16:00:08.814Z,112
2017-02-10T16:01:20.259Z,104
2017-02-10T16:02:31.067Z,96
2017-02-10T16:03:40.532Z,88
2017-02-10T16:04:49.484Z,80